sensor_id;sensor_type;location;lat;lon;timestamp;pressure;altitude;pressure_sealevel;temperature;humidity
14383;BME280;7275;50.328;8.720;2023-04-25T00:01:13;99023.47;;;16.19;43.20
14383;BME280;7275;50.328;8.720;2023-04-25T00:03:41;99012.19;;;16.16;43.40
14383;BME280;7275;50.328;8.720;2023-04-25T00:06:08;99013.03;;;16.16;43.29
14383;BME280;7275;50.328;8.720;2023-04-25T00:08:36;99013.13;;;16.15;43.21
14383;BME280;7275;50.328;8.720;2023-04-25T00:11:04;99012.28;;;16.14;43.21
14383;BME280;7275;50.328;8.720;2023-04-25T00:13:33;99013.03;;;16.16;43.36
14383;BME280;7275;50.328;8.720;2023-04-25T00:16:00;99006.09;;;16.14;43.34
14383;BME280;7275;50.328;8.720;2023-04-25T00:18:29;99011.56;;;16.12;43.27
14383;BME280;7275;50.328;8.720;2023-04-25T00:20:56;99021.25;;;16.13;43.27
14383;BME280;7275;50.328;8.720;2023-04-25T00:23:24;99026.69;;;16.12;43.19
14383;BME280;7275;50.328;8.720;2023-04-25T00:25:52;99022.22;;;16.12;43.16
14383;BME280;7275;50.328;8.720;2023-04-25T00:28:19;99026.38;;;16.16;43.22
14383;BME280;7275;50.328;8.720;2023-04-25T00:30:48;99019.19;;;16.17;43.19
14383;BME280;7275;50.328;8.720;2023-04-25T00:33:16;99021.78;;;16.18;43.12
14383;BME280;7275;50.328;8.720;2023-04-25T00:35:43;99021.78;;;16.18;43.32
14383;BME280;7275;50.328;8.720;2023-04-25T00:38:11;99019.13;;;16.18;43.31
14383;BME280;7275;50.328;8.720;2023-04-25T00:40:38;99017.50;;;16.16;43.36
14383;BME280;7275;50.328;8.720;2023-04-25T00:43:06;99020.50;;;16.11;43.49
14383;BME280;7275;50.328;8.720;2023-04-25T00:45:38;99019.88;;;16.08;43.52
14383;BME280;7275;50.328;8.720;2023-04-25T00:48:07;99023.72;;;16.04;43.58
14383;BME280;7275;50.328;8.720;2023-04-25T00:50:35;99027.56;;;15.99;43.58
14383;BME280;7275;50.328;8.720;2023-04-25T00:53:03;99025.22;;;15.95;43.69
14383;BME280;7275;50.328;8.720;2023-04-25T00:55:31;99029.56;;;15.96;43.79
14383;BME280;7275;50.328;8.720;2023-04-25T00:58:00;99020.81;;;15.94;43.65
14383;BME280;7275;50.328;8.720;2023-04-25T01:00:28;99023.59;;;15.92;43.62
14383;BME280;7275;50.328;8.720;2023-04-25T01:02:56;99016.66;;;15.90;43.98
14383;BME280;7275;50.328;8.720;2023-04-25T01:05:25;99015.06;;;15.87;43.69
14383;BME280;7275;50.328;8.720;2023-04-25T01:07:53;99019.56;;;15.87;43.78
14383;BME280;7275;50.328;8.720;2023-04-25T01:10:21;99013.50;;;15.85;43.98
14383;BME280;7275;50.328;8.720;2023-04-25T01:12:48;99016.97;;;15.85;44.17
14383;BME280;7275;50.328;8.720;2023-04-25T01:15:16;99025.84;;;15.86;44.03
14383;BME280;7275;50.328;8.720;2023-04-25T01:17:43;99019.44;;;15.88;44.15
14383;BME280;7275;50.328;8.720;2023-04-25T01:20:11;99019.56;;;15.87;44.21
14383;BME280;7275;50.328;8.720;2023-04-25T01:22:42;99020.75;;;15.83;44.26
14383;BME280;7275;50.328;8.720;2023-04-25T01:25:10;99015.41;;;15.83;44.17
14383;BME280;7275;50.328;8.720;2023-04-25T01:27:38;99013.56;;;15.83;44.17
14383;BME280;7275;50.328;8.720;2023-04-25T01:30:07;99016.16;;;15.85;44.14
14383;BME280;7275;50.328;8.720;2023-04-25T01:32:35;99015.91;;;15.88;44.11
14383;BME280;7275;50.328;8.720;2023-04-25T01:35:06;99016.78;;;15.88;43.98
14383;BME280;7275;50.328;8.720;2023-04-25T01:37:35;99014.22;;;15.87;43.89
14383;BME280;7275;50.328;8.720;2023-04-25T01:40:06;99013.50;;;15.85;43.91
14383;BME280;7275;50.328;8.720;2023-04-25T01:42:35;99021.47;;;15.85;43.81
14383;BME280;7275;50.328;8.720;2023-04-25T01:45:04;99017.09;;;15.84;43.88
14383;BME280;7275;50.328;8.720;2023-04-25T01:47:32;99017.84;;;15.86;43.72
14383;BME280;7275;50.328;8.720;2023-04-25T01:50:01;99023.28;;;15.84;43.59
14383;BME280;7275;50.328;8.720;2023-04-25T01:52:28;99017.22;;;15.82;43.52
14383;BME280;7275;50.328;8.720;2023-04-25T01:54:56;99017.41;;;15.79;43.58
14383;BME280;7275;50.328;8.720;2023-04-25T01:57:26;99011.34;;;15.77;43.32
14383;BME280;7275;50.328;8.720;2023-04-25T01:59:57;99022.22;;;15.74;43.45
14383;BME280;7275;50.328;8.720;2023-04-25T02:02:25;99024.97;;;15.73;43.33
14383;BME280;7275;50.328;8.720;2023-04-25T02:04:53;99027.22;;;15.66;43.31
14383;BME280;7275;50.328;8.720;2023-04-25T02:07:22;99016.13;;;15.60;43.28
14383;BME280;7275;50.328;8.720;2023-04-25T02:09:49;99019.97;;;15.56;43.18
14383;BME280;7275;50.328;8.720;2023-04-25T02:12:17;99014.09;;;15.51;43.20
14383;BME280;7275;50.328;8.720;2023-04-25T02:14:46;99016.88;;;15.49;43.16
14383;BME280;7275;50.328;8.720;2023-04-25T02:17:13;99017.81;;;15.48;43.16
14383;BME280;7275;50.328;8.720;2023-04-25T02:19:42;99010.78;;;15.47;43.12
14383;BME280;7275;50.328;8.720;2023-04-25T02:22:09;99011.84;;;15.45;43.06
14383;BME280;7275;50.328;8.720;2023-04-25T02:24:37;99012.72;;;15.45;42.94
14383;BME280;7275;50.328;8.720;2023-04-25T02:27:04;99013.66;;;15.44;42.89
14383;BME280;7275;50.328;8.720;2023-04-25T02:29:32;99011.09;;;15.43;42.96
14383;BME280;7275;50.328;8.720;2023-04-25T02:32:01;99018.31;;;15.41;43.13
14383;BME280;7275;50.328;8.720;2023-04-25T02:34:28;99023.81;;;15.38;43.05
14383;BME280;7275;50.328;8.720;2023-04-25T02:36:55;99027.78;;;15.32;42.97
14383;BME280;7275;50.328;8.720;2023-04-25T02:39:23;99030.63;;;15.29;42.95
14383;BME280;7275;50.328;8.720;2023-04-25T02:41:52;99034.44;;;15.25;43.07
14383;BME280;7275;50.328;8.720;2023-04-25T02:44:19;99028.28;;;15.25;43.04
14383;BME280;7275;50.328;8.720;2023-04-25T02:46:47;99032.94;;;15.21;43.13
14383;BME280;7275;50.328;8.720;2023-04-25T02:49:16;99024.22;;;15.19;43.24
14383;BME280;7275;50.328;8.720;2023-04-25T02:51:43;99027.00;;;15.17;43.17
14383;BME280;7275;50.328;8.720;2023-04-25T02:54:11;99027.00;;;15.17;43.10
14383;BME280;7275;50.328;8.720;2023-04-25T02:56:38;99033.25;;;15.16;43.02
14383;BME280;7275;50.328;8.720;2023-04-25T02:59:06;99033.38;;;15.15;43.05
14383;BME280;7275;50.328;8.720;2023-04-25T03:01:33;99026.44;;;15.12;43.16
14383;BME280;7275;50.328;8.720;2023-04-25T03:04:01;99032.72;;;15.11;43.13
14383;BME280;7275;50.328;8.720;2023-04-25T03:06:30;99029.19;;;15.11;43.15
14383;BME280;7275;50.328;8.720;2023-04-25T03:08:57;99034.53;;;15.11;43.12
14383;BME280;7275;50.328;8.720;2023-04-25T03:11:25;99029.41;;;15.08;43.14
14383;BME280;7275;50.328;8.720;2023-04-25T03:13:53;99030.47;;;15.05;43.10
14383;BME280;7275;50.328;8.720;2023-04-25T03:16:21;99034.94;;;15.05;43.19
14383;BME280;7275;50.328;8.720;2023-04-25T03:18:48;99046.63;;;15.02;43.10
14383;BME280;7275;50.328;8.720;2023-04-25T03:21:17;99039.63;;;15.01;43.13
14383;BME280;7275;50.328;8.720;2023-04-25T03:23:45;99037.13;;;14.98;43.10
14383;BME280;7275;50.328;8.720;2023-04-25T03:26:13;99035.63;;;14.94;43.14
14383;BME280;7275;50.328;8.720;2023-04-25T03:28:41;99032.22;;;14.92;43.22
14383;BME280;7275;50.328;8.720;2023-04-25T03:31:09;99036.69;;;14.92;43.02
14383;BME280;7275;50.328;8.720;2023-04-25T03:33:36;99039.56;;;14.89;42.99
14383;BME280;7275;50.328;8.720;2023-04-25T03:36:04;99044.31;;;14.84;43.08
14383;BME280;7275;50.328;8.720;2023-04-25T03:38:32;99045.47;;;14.80;42.94
14383;BME280;7275;50.328;8.720;2023-04-25T03:41:02;99044.94;;;14.75;43.02
14383;BME280;7275;50.328;8.720;2023-04-25T03:43:29;99044.06;;;14.74;42.89
14383;BME280;7275;50.328;8.720;2023-04-25T03:45:57;99052.13;;;14.73;42.82
14383;BME280;7275;50.328;8.720;2023-04-25T03:48:25;99051.47;;;14.69;42.91
14383;BME280;7275;50.328;8.720;2023-04-25T03:50:53;99055.19;;;14.67;42.83
14383;BME280;7275;50.328;8.720;2023-04-25T03:53:21;99062.75;;;14.60;42.71
14383;BME280;7275;50.328;8.720;2023-04-25T03:55:48;99072.03;;;14.53;42.89
14383;BME280;7275;50.328;8.720;2023-04-25T03:58:17;99069.66;;;14.49;42.83
14383;BME280;7275;50.328;8.720;2023-04-25T04:00:45;99069.09;;;14.43;42.81
14383;BME280;7275;50.328;8.720;2023-04-25T04:03:12;99068.25;;;14.43;42.96
14383;BME280;7275;50.328;8.720;2023-04-25T04:05:40;99072.81;;;14.41;42.91
14383;BME280;7275;50.328;8.720;2023-04-25T04:08:08;99076.53;;;14.38;42.97
14383;BME280;7275;50.328;8.720;2023-04-25T04:10:35;99077.56;;;14.36;43.10
14383;BME280;7275;50.328;8.720;2023-04-25T04:13:03;99090.44;;;14.28;43.19
14383;BME280;7275;50.328;8.720;2023-04-25T04:15:31;99091.69;;;14.22;43.26
14383;BME280;7275;50.328;8.720;2023-04-25T04:18:00;99083.31;;;14.14;43.31
14383;BME280;7275;50.328;8.720;2023-04-25T04:20:29;99087.31;;;14.07;43.42
14383;BME280;7275;50.328;8.720;2023-04-25T04:22:57;99085.78;;;14.03;43.55
14383;BME280;7275;50.328;8.720;2023-04-25T04:25:24;99086.66;;;14.04;43.49
14383;BME280;7275;50.328;8.720;2023-04-25T04:27:52;99089.22;;;14.05;43.64
14383;BME280;7275;50.328;8.720;2023-04-25T04:30:21;99090.25;;;14.03;43.76
14383;BME280;7275;50.328;8.720;2023-04-25T04:32:51;99099.09;;;14.03;43.86
14383;BME280;7275;50.328;8.720;2023-04-25T04:35:19;99098.22;;;14.03;43.78
14383;BME280;7275;50.328;8.720;2023-04-25T04:37:46;99103.63;;;14.01;43.77
14383;BME280;7275;50.328;8.720;2023-04-25T04:40:14;99100.97;;;14.01;43.60
14383;BME280;7275;50.328;8.720;2023-04-25T04:42:42;99100.00;;;14.02;43.74
14383;BME280;7275;50.328;8.720;2023-04-25T04:45:11;99096.44;;;14.03;43.64
14383;BME280;7275;50.328;8.720;2023-04-25T04:47:39;99104.41;;;14.03;43.68
14383;BME280;7275;50.328;8.720;2023-04-25T04:50:09;99104.28;;;14.05;43.73
14383;BME280;7275;50.328;8.720;2023-04-25T04:52:38;99102.59;;;14.04;43.76
14383;BME280;7275;50.328;8.720;2023-04-25T04:55:06;99105.81;;;14.09;43.64
14383;BME280;7275;50.328;8.720;2023-04-25T04:57:34;99110.09;;;14.11;43.49
14383;BME280;7275;50.328;8.720;2023-04-25T05:00:04;99117.03;;;14.14;43.58
14383;BME280;7275;50.328;8.720;2023-04-25T05:02:33;99115.03;;;14.17;43.51
14383;BME280;7275;50.328;8.720;2023-04-25T05:05:00;99118.56;;;14.18;43.42
14383;BME280;7275;50.328;8.720;2023-04-25T05:07:29;99112.28;;;14.19;43.31
14383;BME280;7275;50.328;8.720;2023-04-25T05:09:56;99119.09;;;14.23;43.43
14383;BME280;7275;50.328;8.720;2023-04-25T05:12:24;99115.16;;;14.30;43.39
14383;BME280;7275;50.328;8.720;2023-04-25T05:14:52;99112.34;;;14.33;43.17
14383;BME280;7275;50.328;8.720;2023-04-25T05:17:19;99108.53;;;14.37;43.16
14383;BME280;7275;50.328;8.720;2023-04-25T05:19:46;99110.88;;;14.41;43.18
14383;BME280;7275;50.328;8.720;2023-04-25T05:22:14;99110.81;;;14.43;43.18
14383;BME280;7275;50.328;8.720;2023-04-25T05:24:43;99112.44;;;14.46;43.07
14383;BME280;7275;50.328;8.720;2023-04-25T05:27:11;99120.31;;;14.47;42.93
14383;BME280;7275;50.328;8.720;2023-04-25T05:29:38;99114.03;;;14.48;42.90
14383;BME280;7275;50.328;8.720;2023-04-25T05:32:06;99119.44;;;14.47;42.79
14383;BME280;7275;50.328;8.720;2023-04-25T05:34:34;99118.50;;;14.48;42.77
14383;BME280;7275;50.328;8.720;2023-04-25T05:37:02;99119.25;;;14.50;42.85
14383;BME280;7275;50.328;8.720;2023-04-25T05:39:30;99120.78;;;14.54;42.65
14383;BME280;7275;50.328;8.720;2023-04-25T05:41:59;99121.44;;;14.57;42.60
14383;BME280;7275;50.328;8.720;2023-04-25T05:44:27;99130.16;;;14.59;42.49
14383;BME280;7275;50.328;8.720;2023-04-25T05:46:55;99125.22;;;14.67;42.57
14383;BME280;7275;50.328;8.720;2023-04-25T05:49:22;99137.94;;;14.76;42.65
14383;BME280;7275;50.328;8.720;2023-04-25T05:51:50;99139.06;;;14.86;42.53
14383;BME280;7275;50.328;8.720;2023-04-25T05:54:18;99147.25;;;14.97;42.39
14383;BME280;7275;50.328;8.720;2023-04-25T05:56:45;99144.72;;;15.08;42.29
14383;BME280;7275;50.328;8.720;2023-04-25T05:59:14;99141.59;;;15.16;42.15
14383;BME280;7275;50.328;8.720;2023-04-25T06:01:41;99150.78;;;15.25;42.17
14383;BME280;7275;50.328;8.720;2023-04-25T06:04:09;99143.91;;;15.35;42.08
14383;BME280;7275;50.328;8.720;2023-04-25T06:06:37;99151.28;;;15.44;41.97
14383;BME280;7275;50.328;8.720;2023-04-25T06:09:04;99151.56;;;15.53;41.74
14383;BME280;7275;50.328;8.720;2023-04-25T06:11:32;99156.28;;;15.62;41.69
14383;BME280;7275;50.328;8.720;2023-04-25T06:14:00;99145.22;;;15.68;41.69
14383;BME280;7275;50.328;8.720;2023-04-25T06:16:29;99147.38;;;15.76;41.45
14383;BME280;7275;50.328;8.720;2023-04-25T06:18:56;99144.50;;;15.79;41.40
14383;BME280;7275;50.328;8.720;2023-04-25T06:21:24;99142.25;;;15.85;41.55
14383;BME280;7275;50.328;8.720;2023-04-25T06:23:52;99144.31;;;15.94;41.32
14383;BME280;7275;50.328;8.720;2023-04-25T06:26:20;99147.31;;;16.02;41.30
14383;BME280;7275;50.328;8.720;2023-04-25T06:28:48;99147.09;;;16.06;41.62
14383;BME280;7275;50.328;8.720;2023-04-25T06:31:16;99132.78;;;16.07;41.34
14383;BME280;7275;50.328;8.720;2023-04-25T06:33:45;99135.91;;;16.13;41.47
14383;BME280;7275;50.328;8.720;2023-04-25T06:36:14;99147.19;;;16.17;41.32
14383;BME280;7275;50.328;8.720;2023-04-25T06:38:42;99155.13;;;16.18;41.21
14383;BME280;7275;50.328;8.720;2023-04-25T06:41:09;99149.56;;;16.21;41.16
14383;BME280;7275;50.328;8.720;2023-04-25T06:43:37;99148.38;;;16.25;41.23
14383;BME280;7275;50.328;8.720;2023-04-25T06:46:07;99143.59;;;16.30;41.43
14383;BME280;7275;50.328;8.720;2023-04-25T06:48:38;99150.22;;;16.37;41.46
14383;BME280;7275;50.328;8.720;2023-04-25T06:51:09;99149.69;;;16.45;41.41
14383;BME280;7275;50.328;8.720;2023-04-25T06:53:39;99146.50;;;16.52;41.34
14383;BME280;7275;50.328;8.720;2023-04-25T06:56:07;99146.84;;;16.60;41.26
14383;BME280;7275;50.328;8.720;2023-04-25T06:58:34;99152.47;;;16.68;41.14
14383;BME280;7275;50.328;8.720;2023-04-25T07:01:04;99150.13;;;16.76;41.15
14383;BME280;7275;50.328;8.720;2023-04-25T07:03:31;99164.63;;;16.85;41.20
14383;BME280;7275;50.328;8.720;2023-04-25T07:05:59;99167.38;;;16.96;41.06
14383;BME280;7275;50.328;8.720;2023-04-25T07:08:28;99173.53;;;17.09;40.78
14383;BME280;7275;50.328;8.720;2023-04-25T07:10:57;99168.28;;;17.20;40.53
14383;BME280;7275;50.328;8.720;2023-04-25T07:13:24;99171.78;;;17.33;40.69
14383;BME280;7275;50.328;8.720;2023-04-25T07:15:51;99171.81;;;17.44;40.64
14383;BME280;7275;50.328;8.720;2023-04-25T07:18:22;99172.03;;;17.54;40.19
14383;BME280;7275;50.328;8.720;2023-04-25T07:20:49;99174.00;;;17.63;39.90
14383;BME280;7275;50.328;8.720;2023-04-25T07:23:17;99176.75;;;17.74;39.98
14383;BME280;7275;50.328;8.720;2023-04-25T07:25:46;99184.91;;;17.84;39.69
14383;BME280;7275;50.328;8.720;2023-04-25T07:28:13;99186.91;;;17.93;39.84
14383;BME280;7275;50.328;8.720;2023-04-25T07:30:44;99189.84;;;18.01;39.65
14383;BME280;7275;50.328;8.720;2023-04-25T07:33:12;99187.22;;;18.12;39.44
14383;BME280;7275;50.328;8.720;2023-04-25T07:35:39;99192.97;;;18.18;39.35
14383;BME280;7275;50.328;8.720;2023-04-25T07:38:07;99189.81;;;18.24;39.13
14383;BME280;7275;50.328;8.720;2023-04-25T07:40:36;99191.28;;;18.28;39.12
14383;BME280;7275;50.328;8.720;2023-04-25T07:43:05;99196.28;;;18.33;39.09
14383;BME280;7275;50.328;8.720;2023-04-25T07:45:32;99196.56;;;18.41;39.08
14383;BME280;7275;50.328;8.720;2023-04-25T07:48:00;99190.41;;;18.52;39.08
14383;BME280;7275;50.328;8.720;2023-04-25T07:50:28;99194.91;;;18.62;38.85
14383;BME280;7275;50.328;8.720;2023-04-25T07:52:55;99198.56;;;18.72;38.86
14383;BME280;7275;50.328;8.720;2023-04-25T07:55:23;99203.09;;;18.83;38.70
14383;BME280;7275;50.328;8.720;2023-04-25T07:57:50;99204.78;;;18.95;38.58
14383;BME280;7275;50.328;8.720;2023-04-25T08:00:19;99207.47;;;19.06;38.21
14383;BME280;7275;50.328;8.720;2023-04-25T08:02:47;99206.50;;;19.07;37.84
14383;BME280;7275;50.328;8.720;2023-04-25T08:05:17;99218.06;;;19.07;37.70
14383;BME280;7275;50.328;8.720;2023-04-25T08:07:48;99218.34;;;19.04;37.85
14383;BME280;7275;50.328;8.720;2023-04-25T08:10:16;99222.34;;;19.10;37.91
14383;BME280;7275;50.328;8.720;2023-04-25T08:12:43;99217.22;;;19.18;37.84
14383;BME280;7275;50.328;8.720;2023-04-25T08:15:11;99222.44;;;19.31;37.78
14383;BME280;7275;50.328;8.720;2023-04-25T08:17:41;99220.53;;;19.44;37.63
14383;BME280;7275;50.328;8.720;2023-04-25T08:20:11;99223.78;;;19.58;37.78
14383;BME280;7275;50.328;8.720;2023-04-25T08:22:39;99230.16;;;19.78;37.65
14383;BME280;7275;50.328;8.720;2023-04-25T08:25:06;99227.94;;;19.94;37.39
14383;BME280;7275;50.328;8.720;2023-04-25T08:27:34;99223.59;;;20.14;37.43
14383;BME280;7275;50.328;8.720;2023-04-25T08:30:02;99225.88;;;20.29;37.23
14383;BME280;7275;50.328;8.720;2023-04-25T08:32:30;99228.91;;;20.36;36.90
14383;BME280;7275;50.328;8.720;2023-04-25T08:34:59;99244.28;;;20.34;36.47
14383;BME280;7275;50.328;8.720;2023-04-25T08:37:26;99244.78;;;20.28;36.32
14383;BME280;7275;50.328;8.720;2023-04-25T08:39:54;99245.28;;;20.22;36.21
14383;BME280;7275;50.328;8.720;2023-04-25T08:42:23;99237.47;;;20.19;35.80
14383;BME280;7275;50.328;8.720;2023-04-25T08:44:53;99235.28;;;20.24;35.87
14383;BME280;7275;50.328;8.720;2023-04-25T08:47:22;99237.19;;;20.33;36.11
14383;BME280;7275;50.328;8.720;2023-04-25T08:49:50;99241.13;;;20.49;35.93
14383;BME280;7275;50.328;8.720;2023-04-25T08:52:23;99237.53;;;20.60;35.48
14383;BME280;7275;50.328;8.720;2023-04-25T08:54:51;99245.94;;;20.66;35.62
14383;BME280;7275;50.328;8.720;2023-04-25T08:57:19;99243.09;;;20.68;35.39
14383;BME280;7275;50.328;8.720;2023-04-25T08:59:48;99246.06;;;20.65;35.04
14383;BME280;7275;50.328;8.720;2023-04-25T09:02:16;99250.97;;;20.60;35.18
14383;BME280;7275;50.328;8.720;2023-04-25T09:04:47;99257.31;;;20.59;35.32
14383;BME280;7275;50.328;8.720;2023-04-25T09:07:15;99259.78;;;20.71;35.61
14383;BME280;7275;50.328;8.720;2023-04-25T09:09:48;99260.38;;;20.96;35.54
14383;BME280;7275;50.328;8.720;2023-04-25T09:12:17;99258.56;;;21.17;35.17
14383;BME280;7275;50.328;8.720;2023-04-25T09:15:01;99264.19;;;21.44;35.46
14383;BME280;7275;50.328;8.720;2023-04-25T09:17:29;99265.94;;;21.74;35.07
14383;BME280;7275;50.328;8.720;2023-04-25T09:20:05;99268.72;;;21.93;35.24
14383;BME280;7275;50.328;8.720;2023-04-25T09:22:34;99275.97;;;22.02;34.70
14383;BME280;7275;50.328;8.720;2023-04-25T09:25:07;99276.53;;;21.96;33.75
14383;BME280;7275;50.328;8.720;2023-04-25T09:27:35;99277.75;;;21.82;33.81
14383;BME280;7275;50.328;8.720;2023-04-25T09:30:03;99283.19;;;21.62;33.41
14383;BME280;7275;50.328;8.720;2023-04-25T09:32:31;99286.69;;;21.43;33.68
14383;BME280;7275;50.328;8.720;2023-04-25T09:34:59;99286.91;;;21.30;33.78
14383;BME280;7275;50.328;8.720;2023-04-25T09:37:28;99297.34;;;21.24;33.56
14383;BME280;7275;50.328;8.720;2023-04-25T09:39:57;99307.59;;;21.09;33.69
14383;BME280;7275;50.328;8.720;2023-04-25T09:42:28;99312.56;;;20.93;33.64
14383;BME280;7275;50.328;8.720;2023-04-25T09:44:58;99315.00;;;20.76;33.74
14383;BME280;7275;50.328;8.720;2023-04-25T09:47:28;99329.09;;;20.57;33.63
14383;BME280;7275;50.328;8.720;2023-04-25T09:49:55;99331.66;;;20.38;33.77
14383;BME280;7275;50.328;8.720;2023-04-25T09:52:24;99324.00;;;20.22;34.07
14383;BME280;7275;50.328;8.720;2023-04-25T09:54:52;99329.34;;;20.11;34.22
14383;BME280;7275;50.328;8.720;2023-04-25T09:57:22;99336.81;;;20.08;34.39
14383;BME280;7275;50.328;8.720;2023-04-25T09:59:52;99337.03;;;20.16;34.57
14383;BME280;7275;50.328;8.720;2023-04-25T10:02:21;99342.03;;;20.31;34.65
14383;BME280;7275;50.328;8.720;2023-04-25T10:04:51;99336.75;;;20.41;34.36
14383;BME280;7275;50.328;8.720;2023-04-25T10:07:22;99348.56;;;20.49;34.46
14383;BME280;7275;50.328;8.720;2023-04-25T10:09:54;99352.16;;;20.59;34.33
14383;BME280;7275;50.328;8.720;2023-04-25T10:12:26;99351.94;;;20.62;34.01
14383;BME280;7275;50.328;8.720;2023-04-25T10:14:55;99353.75;;;20.62;34.01
14383;BME280;7275;50.328;8.720;2023-04-25T10:17:23;99365.16;;;20.54;33.49
14383;BME280;7275;50.328;8.720;2023-04-25T10:19:51;99363.59;;;20.41;33.47
14383;BME280;7275;50.328;8.720;2023-04-25T10:22:25;99368.16;;;20.29;33.46
14383;BME280;7275;50.328;8.720;2023-04-25T10:24:55;99363.66;;;20.19;33.16
14383;BME280;7275;50.328;8.720;2023-04-25T10:27:24;99364.75;;;20.16;33.28
14383;BME280;7275;50.328;8.720;2023-04-25T10:30:02;99352.44;;;20.25;33.13
14383;BME280;7275;50.328;8.720;2023-04-25T10:32:32;99354.06;;;20.48;33.14
14383;BME280;7275;50.328;8.720;2023-04-25T10:35:10;99342.59;;;20.98;32.88
14383;BME280;7275;50.328;8.720;2023-04-25T10:37:37;99346.44;;;21.77;32.78
14383;BME280;7275;50.328;8.720;2023-04-25T10:40:08;99341.53;;;22.88;32.43
14383;BME280;7275;50.328;8.720;2023-04-25T10:42:36;99332.50;;;24.36;31.53
14383;BME280;7275;50.328;8.720;2023-04-25T10:45:06;99330.47;;;25.09;30.95
14383;BME280;7275;50.328;8.720;2023-04-25T10:47:34;99331.56;;;25.42;30.46
14383;BME280;7275;50.328;8.720;2023-04-25T10:50:05;99330.91;;;26.15;29.52
14383;BME280;7275;50.328;8.720;2023-04-25T10:52:33;99321.19;;;26.54;29.04
14383;BME280;7275;50.328;8.720;2023-04-25T10:55:03;99336.38;;;26.31;28.51
14383;BME280;7275;50.328;8.720;2023-04-25T10:57:35;99341.59;;;25.83;28.77
14383;BME280;7275;50.328;8.720;2023-04-25T11:00:13;99350.66;;;25.22;28.56
14383;BME280;7275;50.328;8.720;2023-04-25T11:02:44;99352.34;;;24.63;28.58
14383;BME280;7275;50.328;8.720;2023-04-25T11:05:23;99350.03;;;24.05;28.88
14383;BME280;7275;50.328;8.720;2023-04-25T11:07:58;99353.47;;;23.61;29.26
14383;BME280;7275;50.328;8.720;2023-04-25T11:10:34;99350.25;;;23.29;29.24
14383;BME280;7275;50.328;8.720;2023-04-25T11:13:02;99349.91;;;23.04;29.55
14383;BME280;7275;50.328;8.720;2023-04-25T11:15:31;99344.38;;;22.87;29.83
14383;BME280;7275;50.328;8.720;2023-04-25T11:17:59;99354.44;;;22.85;29.81
14383;BME280;7275;50.328;8.720;2023-04-25T11:20:27;99353.03;;;23.00;29.81
14383;BME280;7275;50.328;8.720;2023-04-25T11:22:57;99342.06;;;23.21;30.01
14383;BME280;7275;50.328;8.720;2023-04-25T11:25:25;99338.91;;;23.44;29.73
14383;BME280;7275;50.328;8.720;2023-04-25T11:27:54;99345.44;;;23.42;29.55
14383;BME280;7275;50.328;8.720;2023-04-25T11:30:23;99345.19;;;23.26;29.44
14383;BME280;7275;50.328;8.720;2023-04-25T11:32:53;99354.00;;;23.09;29.12
14383;BME280;7275;50.328;8.720;2023-04-25T11:35:21;99349.75;;;22.87;29.27
14383;BME280;7275;50.328;8.720;2023-04-25T11:37:49;99356.31;;;22.65;29.42
14383;BME280;7275;50.328;8.720;2023-04-25T11:40:17;99352.88;;;22.44;29.55
14383;BME280;7275;50.328;8.720;2023-04-25T11:42:46;99356.94;;;22.19;29.64
14383;BME280;7275;50.328;8.720;2023-04-25T11:45:14;99371.16;;;21.91;29.73
14383;BME280;7275;50.328;8.720;2023-04-25T11:47:42;99371.97;;;21.62;29.65
14383;BME280;7275;50.328;8.720;2023-04-25T11:50:11;99374.78;;;21.30;29.87
14383;BME280;7275;50.328;8.720;2023-04-25T11:52:41;99384.47;;;21.01;30.04
14383;BME280;7275;50.328;8.720;2023-04-25T11:55:12;99386.69;;;20.75;30.21
14383;BME280;7275;50.328;8.720;2023-04-25T11:57:41;99390.66;;;20.49;30.25
14383;BME280;7275;50.328;8.720;2023-04-25T12:00:11;99394.28;;;20.27;30.49
14383;BME280;7275;50.328;8.720;2023-04-25T12:02:45;99403.69;;;20.11;30.57
14383;BME280;7275;50.328;8.720;2023-04-25T12:05:15;99406.59;;;19.97;30.98
14383;BME280;7275;50.328;8.720;2023-04-25T12:08:09;99407.59;;;19.84;31.08
14383;BME280;7275;50.328;8.720;2023-04-25T12:10:38;99407.34;;;19.76;30.90
14383;BME280;7275;50.328;8.720;2023-04-25T12:13:20;99415.03;;;19.70;31.07
14383;BME280;7275;50.328;8.720;2023-04-25T12:15:47;99418.06;;;19.65;31.06
14383;BME280;7275;50.328;8.720;2023-04-25T12:18:19;99409.53;;;19.60;31.09
14383;BME280;7275;50.328;8.720;2023-04-25T12:20:48;99420.28;;;19.60;31.19
14383;BME280;7275;50.328;8.720;2023-04-25T12:23:15;99416.13;;;19.67;31.27
14383;BME280;7275;50.328;8.720;2023-04-25T12:25:44;99400.63;;;19.82;31.16
14383;BME280;7275;50.328;8.720;2023-04-25T12:28:14;99404.78;;;20.08;31.10
14383;BME280;7275;50.328;8.720;2023-04-25T12:30:55;99395.84;;;20.73;31.17
14383;BME280;7275;50.328;8.720;2023-04-25T12:33:24;99382.03;;;22.30;30.11
14383;BME280;7275;50.328;8.720;2023-04-25T12:35:53;99382.69;;;24.12;29.26
14383;BME280;7275;50.328;8.720;2023-04-25T12:38:22;99370.28;;;26.01;27.98
14383;BME280;7275;50.328;8.720;2023-04-25T12:40:50;99362.22;;;27.72;26.54
14383;BME280;7275;50.328;8.720;2023-04-25T12:43:17;99367.63;;;28.27;25.35
14383;BME280;7275;50.328;8.720;2023-04-25T12:45:47;99374.22;;;27.86;25.24
14383;BME280;7275;50.328;8.720;2023-04-25T12:48:15;99382.28;;;27.23;25.42
14383;BME280;7275;50.328;8.720;2023-04-25T12:50:42;99382.19;;;26.50;25.78
14383;BME280;7275;50.328;8.720;2023-04-25T12:53:11;99396.97;;;25.80;26.15
14383;BME280;7275;50.328;8.720;2023-04-25T12:55:39;99396.63;;;25.14;26.52
14383;BME280;7275;50.328;8.720;2023-04-25T12:58:06;99400.06;;;24.54;26.38
14383;BME280;7275;50.328;8.720;2023-04-25T13:00:34;99404.84;;;24.15;26.88
14383;BME280;7275;50.328;8.720;2023-04-25T13:03:02;99403.78;;;23.99;27.01
14383;BME280;7275;50.328;8.720;2023-04-25T13:05:31;99401.25;;;24.69;26.97
14383;BME280;7275;50.328;8.720;2023-04-25T13:07:58;99394.84;;;26.00;26.45
14383;BME280;7275;50.328;8.720;2023-04-25T13:10:27;99394.59;;;26.61;25.84
14383;BME280;7275;50.328;8.720;2023-04-25T13:12:55;99398.63;;;26.49;25.62
14383;BME280;7275;50.328;8.720;2023-04-25T13:15:23;99392.50;;;26.05;25.45
14383;BME280;7275;50.328;8.720;2023-04-25T13:17:51;99390.63;;;25.46;25.73